createdAt,value
2023-02-11T00:01:11.144Z,19.43
2023-02-11T00:03:38.964Z,18.43
2023-02-11T00:06:11.109Z,18.23
2023-02-11T00:08:38.806Z,18.30
2023-02-11T00:11:05.816Z,16.77
2023-02-11T00:13:32.566Z,17.80
2023-02-11T00:15:59.312Z,17.07
2023-02-11T00:18:26.171Z,15.40
2023-02-11T00:20:53.688Z,17.20
2023-02-11T00:23:20.361Z,16.10
2023-02-11T00:25:47.241Z,16.67
2023-02-11T00:28:14.169Z,14.67
2023-02-11T00:30:41.440Z,14.93
2023-02-11T00:33:08.390Z,15.30
2023-02-11T00:35:38.718Z,13.73
2023-02-11T00:38:05.536Z,15.53
2023-02-11T00:40:32.555Z,15.07
2023-02-11T00:43:01.853Z,16.00
2023-02-11T00:45:30.742Z,14.13
2023-02-11T00:47:57.584Z,15.23
2023-02-11T00:50:24.570Z,16.17
2023-02-11T00:52:51.259Z,14.37
2023-02-11T00:55:18.053Z,15.20
2023-02-11T00:57:44.878Z,16.13
2023-02-11T01:00:13.390Z,15.13
2023-02-11T01:02:40.116Z,15.60
2023-02-11T01:05:07.686Z,15.00
2023-02-11T01:07:34.519Z,16.20
2023-02-11T01:10:01.991Z,15.20
2023-02-11T01:12:28.792Z,15.33
2023-02-11T01:14:55.480Z,15.60
2023-02-11T01:17:22.340Z,15.73
2023-02-11T01:19:49.154Z,16.07
2023-02-11T01:22:15.884Z,17.13
2023-02-11T01:24:42.628Z,15.97
2023-02-11T01:27:09.314Z,14.87
2023-02-11T01:29:36.124Z,16.87
2023-02-11T01:32:02.864Z,16.07
2023-02-11T01:34:29.580Z,16.90
2023-02-11T01:36:59.789Z,16.43
2023-02-11T01:39:27.747Z,15.33
2023-02-11T01:41:54.555Z,15.70
2023-02-11T01:44:23.854Z,17.00
2023-02-11T01:46:50.682Z,16.60
2023-02-11T01:49:28.718Z,17.07
2023-02-11T01:52:01.391Z,16.70
2023-02-11T01:54:54.165Z,17.07
2023-02-11T01:57:25.869Z,17.07
2023-02-11T01:59:55.569Z,16.93
2023-02-11T02:02:27.604Z,18.07
2023-02-11T02:05:02.779Z,16.87
2023-02-11T02:07:37.383Z,18.13
2023-02-11T02:10:11.664Z,16.40
2023-02-11T02:12:38.504Z,17.80
2023-02-11T02:15:35.524Z,17.63
2023-02-11T02:18:24.076Z,18.83
2023-02-11T02:21:25.486Z,18.90
2023-02-11T02:24:08.580Z,17.10
2023-02-11T02:27:13.041Z,19.77
2023-02-11T02:29:57.700Z,18.10
2023-02-11T02:32:58.846Z,18.70
2023-02-11T02:35:34.804Z,18.20
2023-02-11T02:38:29.054Z,18.37
2023-02-11T02:41:08.137Z,17.73
2023-02-11T02:43:37.405Z,18.67
2023-02-11T02:46:11.675Z,19.03
2023-02-11T02:48:38.628Z,19.67
2023-02-11T02:51:17.683Z,20.40
2023-02-11T02:54:18.130Z,19.10
2023-02-11T02:57:07.285Z,20.53
2023-02-11T02:59:37.022Z,19.73
2023-02-11T03:02:13.416Z,20.17
2023-02-11T03:05:28.089Z,20.43
2023-02-11T03:07:54.937Z,20.60
2023-02-11T03:10:30.441Z,20.80
2023-02-11T03:12:58.298Z,19.40
2023-02-11T03:15:28.989Z,21.50
2023-02-11T03:17:59.724Z,21.37
2023-02-11T03:20:30.261Z,20.27
2023-02-11T03:23:18.874Z,21.27
2023-02-11T03:25:55.864Z,20.90
2023-02-11T03:28:41.292Z,20.73
2023-02-11T03:31:15.003Z,20.63
2023-02-11T03:34:02.370Z,19.30
2023-02-11T03:36:54.632Z,20.53
2023-02-11T03:39:27.401Z,20.97
2023-02-11T03:41:58.574Z,20.30
2023-02-11T03:44:31.287Z,20.30
2023-02-11T03:47:00.699Z,20.37
2023-02-11T03:49:28.530Z,20.77
2023-02-11T03:51:56.963Z,18.97
2023-02-11T03:54:29.420Z,21.67
2023-02-11T03:56:59.772Z,20.10
2023-02-11T03:59:26.825Z,19.50
2023-02-11T04:01:53.704Z,19.73
2023-02-11T04:04:20.590Z,18.63
2023-02-11T04:06:47.308Z,19.40
2023-02-11T04:09:14.952Z,19.00
2023-02-11T04:11:41.810Z,19.47
2023-02-11T04:14:08.583Z,19.40
2023-02-11T04:16:35.425Z,18.70
2023-02-11T04:19:02.162Z,19.40
2023-02-11T04:21:29.268Z,17.33
2023-02-11T04:23:55.988Z,18.00
2023-02-11T04:26:22.746Z,18.23
2023-02-11T04:28:49.427Z,18.57
2023-02-11T04:31:16.321Z,18.70
2023-02-11T04:33:43.105Z,17.20
2023-02-11T04:36:09.944Z,19.83
2023-02-11T04:38:36.670Z,19.47
2023-02-11T04:41:03.664Z,18.90
2023-02-11T04:43:30.361Z,19.63
2023-02-11T04:45:58.771Z,19.83
2023-02-11T04:48:26.058Z,18.90
2023-02-11T04:50:52.892Z,19.33
2023-02-11T04:53:19.916Z,18.70
2023-02-11T04:55:50.790Z,17.80
2023-02-11T04:58:18.837Z,17.67
2023-02-11T05:00:46.257Z,17.60
2023-02-11T05:03:13.922Z,18.00
2023-02-11T05:05:41.762Z,17.97
2023-02-11T05:08:09.918Z,18.53
2023-02-11T05:10:37.629Z,18.87
2023-02-11T05:13:04.434Z,18.10
2023-02-11T05:15:31.661Z,18.83
2023-02-11T05:17:58.647Z,19.03
2023-02-11T05:20:25.464Z,18.70
2023-02-11T05:22:52.650Z,18.10
2023-02-11T05:25:20.456Z,18.73
2023-02-11T05:27:47.383Z,19.00
2023-02-11T05:30:14.435Z,19.30
2023-02-11T05:32:42.247Z,19.10
2023-02-11T05:35:09.494Z,18.80
2023-02-11T05:37:36.263Z,18.60
2023-02-11T05:40:03.458Z,18.60
2023-02-11T05:42:30.232Z,19.10
2023-02-11T05:44:56.884Z,18.67
2023-02-11T05:47:23.670Z,18.90
2023-02-11T05:49:51.332Z,20.30
2023-02-11T05:52:18.091Z,19.87
2023-02-11T05:54:44.796Z,19.97
2023-02-11T05:57:11.517Z,18.80
2023-02-11T05:59:38.958Z,19.47
2023-02-11T06:02:07.947Z,19.20
2023-02-11T06:04:35.603Z,19.87
2023-02-11T06:07:03.055Z,20.10
2023-02-11T06:09:30.037Z,20.20
2023-02-11T06:11:56.827Z,20.83
2023-02-11T06:14:23.878Z,20.13
2023-02-11T06:16:50.610Z,19.40
2023-02-11T06:19:17.368Z,21.30
2023-02-11T06:21:44.681Z,21.60
2023-02-11T06:24:12.350Z,21.60
2023-02-11T06:26:39.149Z,21.40
2023-02-11T06:29:05.971Z,21.27
2023-02-11T06:31:32.767Z,21.10
2023-02-11T06:33:59.590Z,21.73
2023-02-11T06:36:26.637Z,21.20
2023-02-11T06:38:53.458Z,21.80
2023-02-11T06:41:20.507Z,22.00
2023-02-11T06:43:47.501Z,22.00
2023-02-11T06:46:14.989Z,22.47
2023-02-11T06:48:44.648Z,21.87
2023-02-11T06:51:13.388Z,21.03
2023-02-11T06:53:42.838Z,21.23
2023-02-11T06:56:15.480Z,21.37
2023-02-11T06:58:42.811Z,20.20
2023-02-11T07:01:12.218Z,20.97
2023-02-11T07:03:40.902Z,21.93
2023-02-11T07:06:08.844Z,22.40
2023-02-11T07:08:37.161Z,21.47
2023-02-11T07:11:12.404Z,21.53
2023-02-11T07:13:39.403Z,21.73
2023-02-11T07:16:07.598Z,22.80
2023-02-11T07:18:34.580Z,21.70
2023-02-11T07:21:07.884Z,21.70
2023-02-11T07:23:36.267Z,22.40
2023-02-11T07:26:05.072Z,22.27
2023-02-11T07:28:33.771Z,24.30
2023-02-11T07:31:05.786Z,21.27
2023-02-11T07:33:32.530Z,23.67
2023-02-11T07:36:01.074Z,22.57
2023-02-11T07:38:28.515Z,23.93
2023-02-11T07:40:55.235Z,22.67
2023-02-11T07:43:21.995Z,24.30
2023-02-11T07:45:48.914Z,24.13
2023-02-11T07:48:15.725Z,22.93
2023-02-11T07:50:42.472Z,23.63
2023-02-11T07:53:09.136Z,24.43
2023-02-11T07:55:35.877Z,23.47
2023-02-11T07:58:02.598Z,22.67
2023-02-11T08:00:29.349Z,23.03
2023-02-11T08:02:57.876Z,22.93
2023-02-11T08:05:24.620Z,23.97
2023-02-11T08:07:52.708Z,23.77
2023-02-11T08:10:19.763Z,23.60
2023-02-11T08:12:46.476Z,24.27
2023-02-11T08:15:13.615Z,23.37
2023-02-11T08:17:40.345Z,27.63
2023-02-11T08:20:07.442Z,25.33
2023-02-11T08:22:35.344Z,24.60
2023-02-11T08:25:02.137Z,24.90
2023-02-11T08:27:28.983Z,24.30
2023-02-11T08:29:57.065Z,26.03
2023-02-11T08:32:25.588Z,24.63
2023-02-11T08:34:52.724Z,24.40
2023-02-11T08:37:20.198Z,24.77
2023-02-11T08:39:47.402Z,24.77
2023-02-11T08:42:15.650Z,24.80
2023-02-11T08:44:43.078Z,25.63
2023-02-11T08:47:09.898Z,25.20
2023-02-11T08:49:36.690Z,24.07
2023-02-11T08:52:04.259Z,26.30
2023-02-11T08:54:31.516Z,23.20
2023-02-11T08:56:58.209Z,24.50
2023-02-11T08:59:25.240Z,24.67
2023-02-11T09:01:52.083Z,23.60
2023-02-11T09:04:19.461Z,23.50
2023-02-11T09:06:46.324Z,25.47
2023-02-11T09:09:15.055Z,21.90
2023-02-11T09:11:44.170Z,22.63
2023-02-11T09:14:22.141Z,24.13
2023-02-11T09:16:50.057Z,24.67
2023-02-11T09:19:17.743Z,22.60
2023-02-11T09:21:44.662Z,22.70
2023-02-11T09:24:11.679Z,24.07
2023-02-11T09:26:42.319Z,23.70
2023-02-11T09:29:09.177Z,24.03
2023-02-11T09:31:36.060Z,22.57
2023-02-11T09:34:05.463Z,22.87
2023-02-11T09:36:37.216Z,22.40
2023-02-11T09:39:06.063Z,23.87
2023-02-11T09:41:41.001Z,24.00
2023-02-11T09:44:16.568Z,23.30
2023-02-11T09:46:53.756Z,22.50
2023-02-11T09:49:28.008Z,21.43
2023-02-11T09:52:20.445Z,22.90
2023-02-11T09:54:57.171Z,22.90
2023-02-11T09:57:31.628Z,23.00
2023-02-11T09:59:58.407Z,22.20
2023-02-11T10:02:38.065Z,23.00
2023-02-11T10:05:21.693Z,21.70
2023-02-11T10:08:26.411Z,22.17
2023-02-11T10:11:06.618Z,22.53
2023-02-11T10:13:50.879Z,22.67
2023-02-11T10:16:30.642Z,22.80
2023-02-11T10:19:21.324Z,21.87
2023-02-11T10:22:06.044Z,21.20
2023-02-11T10:24:34.579Z,21.53
2023-02-11T10:27:06.409Z,20.70
2023-02-11T10:29:40.834Z,20.73
2023-02-11T10:32:22.896Z,23.30
2023-02-11T10:34:50.109Z,22.37
2023-02-11T10:37:16.876Z,22.07
2023-02-11T10:39:43.772Z,22.77
2023-02-11T10:42:13.813Z,23.00
2023-02-11T10:44:49.402Z,22.60
2023-02-11T10:47:21.868Z,22.10
2023-02-11T10:49:49.096Z,21.63
2023-02-11T10:52:20.771Z,21.40
2023-02-11T10:55:05.349Z,22.67
2023-02-11T10:57:36.411Z,20.97
2023-02-11T11:00:08.961Z,20.97
2023-02-11T11:02:38.827Z,21.03
2023-02-11T11:05:30.436Z,21.13
2023-02-11T11:08:08.837Z,19.00
2023-02-11T11:10:46.985Z,21.40
2023-02-11T11:13:27.220Z,22.10
2023-02-11T11:16:18.293Z,21.20
2023-02-11T11:18:49.719Z,21.50
2023-02-11T11:21:30.231Z,22.20
2023-02-11T11:23:59.905Z,21.70
2023-02-11T11:26:42.497Z,22.77
2023-02-11T11:30:08.445Z,23.40
2023-02-11T11:32:37.213Z,20.60
2023-02-11T11:35:20.362Z,23.13
2023-02-11T11:37:53.934Z,22.80
2023-02-11T11:40:32.257Z,21.50
2023-02-11T11:43:12.786Z,20.70
2023-02-11T11:45:39.985Z,23.37
2023-02-11T11:48:42.732Z,23.20
2023-02-11T11:51:12.065Z,22.13
2023-02-11T11:54:02.092Z,23.80
2023-02-11T11:56:39.951Z,21.60
2023-02-11T11:59:16.664Z,20.90
2023-02-11T12:02:14.099Z,20.97
2023-02-11T12:04:52.682Z,23.37
2023-02-11T12:07:57.613Z,23.87
2023-02-11T12:10:42.293Z,22.00
2023-02-11T12:13:44.390Z,23.57
2023-02-11T12:16:23.137Z,23.00
2023-02-11T12:19:10.843Z,24.27
2023-02-11T12:22:09.551Z,20.80
2023-02-11T12:24:54.756Z,23.13
2023-02-11T12:27:50.418Z,21.80
2023-02-11T12:30:22.945Z,23.90
2023-02-11T12:33:14.902Z,23.30
2023-02-11T12:36:01.531Z,22.47
2023-02-11T12:38:43.065Z,23.97
2023-02-11T12:41:55.494Z,24.40
2023-02-11T12:44:37.192Z,22.97
2023-02-11T12:47:19.223Z,24.77
2023-02-11T12:50:11.166Z,25.77
2023-02-11T12:52:59.067Z,24.30
2023-02-11T12:55:28.336Z,23.90
2023-02-11T12:57:57.854Z,24.50
2023-02-11T13:00:34.856Z,24.30
2023-02-11T13:03:10.982Z,24.57
2023-02-11T13:05:40.305Z,25.00
2023-02-11T13:08:25.155Z,25.80
2023-02-11T13:11:07.852Z,24.60
2023-02-11T13:13:49.664Z,25.20
2023-02-11T13:16:40.676Z,26.47
2023-02-11T13:19:07.955Z,25.07
2023-02-11T13:22:00.220Z,24.63
2023-02-11T13:24:52.935Z,26.30
2023-02-11T13:27:44.002Z,25.17
2023-02-11T13:30:32.994Z,24.60
2023-02-11T13:33:03.214Z,24.73
2023-02-11T13:35:38.489Z,25.57
2023-02-11T13:38:16.529Z,26.50
2023-02-11T13:40:44.149Z,27.07
2023-02-11T13:43:25.527Z,25.27
2023-02-11T13:45:57.759Z,24.80
2023-02-11T13:48:33.276Z,26.30
2023-02-11T13:51:03.452Z,25.33
2023-02-11T13:53:43.649Z,23.83
2023-02-11T13:56:23.145Z,26.70
2023-02-11T13:58:51.671Z,28.70
2023-02-11T14:01:42.030Z,27.40
2023-02-11T14:04:49.115Z,26.80
2023-02-11T14:08:09.580Z,26.30
2023-02-11T14:10:41.937Z,27.53
2023-02-11T14:13:31.126Z,26.03
2023-02-11T14:16:10.215Z,26.20
2023-02-11T14:18:59.923Z,25.57
2023-02-11T14:21:27.422Z,26.37
2023-02-11T14:24:01.269Z,27.30
2023-02-11T14:26:27.949Z,26.90
2023-02-11T14:29:06.914Z,26.30
2023-02-11T14:31:49.222Z,27.70
2023-02-11T14:34:33.993Z,27.17
2023-02-11T14:37:22.006Z,28.97
2023-02-11T14:40:12.939Z,24.63
2023-02-11T14:42:39.861Z,26.70
2023-02-11T14:45:11.793Z,28.37
2023-02-11T14:48:31.345Z,28.27
2023-02-11T14:51:12.942Z,28.63
2023-02-11T14:53:44.763Z,27.07
2023-02-11T14:56:38.229Z,28.50
2023-02-11T14:59:20.595Z,27.07
2023-02-11T15:01:54.794Z,26.63
2023-02-11T15:04:34.468Z,28.80
2023-02-11T15:07:08.244Z,26.17
2023-02-11T15:09:42.655Z,27.00
2023-02-11T15:12:28.206Z,26.00
2023-02-11T15:14:58.147Z,28.43
2023-02-11T15:17:31.737Z,28.07
2023-02-11T15:20:01.225Z,26.23
2023-02-11T15:22:36.364Z,29.10
2023-02-11T15:25:16.738Z,27.63
2023-02-11T15:27:48.434Z,25.83
2023-02-11T15:30:27.012Z,26.83
2023-02-11T15:33:00.026Z,26.33
2023-02-11T15:35:32.698Z,28.17
2023-02-11T15:38:00.050Z,26.40
2023-02-11T15:40:33.107Z,26.33
2023-02-11T15:43:08.207Z,27.53
2023-02-11T15:45:44.510Z,28.20
2023-02-11T15:48:22.408Z,28.20
2023-02-11T15:50:53.687Z,27.60
2023-02-11T15:53:31.721Z,28.53
2023-02-11T15:56:09.391Z,28.67
2023-02-11T15:58:38.677Z,27.37
2023-02-11T16:01:06.730Z,26.33
2023-02-11T16:03:33.812Z,27.53
2023-02-11T16:06:21.767Z,26.10
2023-02-11T16:09:25.085Z,25.73
2023-02-11T16:11:51.903Z,28.17
2023-02-11T16:14:37.043Z,27.00
2023-02-11T16:17:17.852Z,26.83
2023-02-11T16:19:47.830Z,28.47
2023-02-11T16:22:22.955Z,29.27
2023-02-11T16:24:53.077Z,26.50
2023-02-11T16:27:28.522Z,28.83
2023-02-11T16:29:56.847Z,26.47
2023-02-11T16:32:27.247Z,27.37
2023-02-11T16:34:57.937Z,27.67
2023-02-11T16:37:25.335Z,29.70
2023-02-11T16:40:00.754Z,27.70
2023-02-11T16:42:27.588Z,29.60
2023-02-11T16:44:54.577Z,28.80
2023-02-11T16:47:27.859Z,29.07
2023-02-11T16:49:55.703Z,28.23
2023-02-11T16:52:23.309Z,29.17
2023-02-11T16:54:50.405Z,28.87
2023-02-11T16:57:22.896Z,29.10
2023-02-11T16:59:50.988Z,29.47
2023-02-11T17:02:30.480Z,28.67
2023-02-11T17:05:01.192Z,27.10
2023-02-11T17:07:28.755Z,29.77
2023-02-11T17:09:56.432Z,28.70
2023-02-11T17:12:26.690Z,28.67
2023-02-11T17:14:53.988Z,28.90
2023-02-11T17:17:23.742Z,29.87
2023-02-11T17:19:51.348Z,30.03
2023-02-11T17:22:18.985Z,31.57
2023-02-11T17:24:46.200Z,30.13
2023-02-11T17:27:13.213Z,29.97
2023-02-11T17:29:43.077Z,30.80
2023-02-11T17:32:09.850Z,30.47
2023-02-11T17:34:36.696Z,32.20
2023-02-11T17:37:16.216Z,32.93
2023-02-11T17:39:43.840Z,30.27
2023-02-11T17:42:11.733Z,31.77
2023-02-11T17:44:38.575Z,32.10
2023-02-11T17:47:05.480Z,33.67
2023-02-11T17:49:32.694Z,30.40
2023-02-11T17:51:59.442Z,32.33
2023-02-11T17:54:26.778Z,32.70
2023-02-11T17:56:57.782Z,32.03
2023-02-11T17:59:26.027Z,32.23
2023-02-11T18:01:52.789Z,30.90
2023-02-11T18:04:20.091Z,34.53
2023-02-11T18:06:47.341Z,32.80
2023-02-11T18:09:14.189Z,32.07
2023-02-11T18:11:41.371Z,30.50
2023-02-11T18:14:08.548Z,32.00
2023-02-11T18:16:36.609Z,31.37
2023-02-11T18:19:04.296Z,32.37
2023-02-11T18:21:30.993Z,30.07
2023-02-11T18:24:00.023Z,30.53
2023-02-11T18:26:28.293Z,31.47
2023-02-11T18:28:58.173Z,31.33
2023-02-11T18:31:26.579Z,30.63
2023-02-11T18:33:53.503Z,31.90
2023-02-11T18:36:21.892Z,32.70
2023-02-11T18:38:48.850Z,30.73
2023-02-11T18:41:15.816Z,31.43
2023-02-11T18:43:43.159Z,29.40
2023-02-11T18:46:12.858Z,29.90
2023-02-11T18:48:40.213Z,28.20
2023-02-11T18:51:12.471Z,30.50
2023-02-11T18:53:39.507Z,29.47
2023-02-11T18:56:11.168Z,29.53
2023-02-11T18:58:38.756Z,30.10
2023-02-11T19:01:24.412Z,29.80
2023-02-11T19:03:51.381Z,29.50
2023-02-11T19:06:26.991Z,30.33
2023-02-11T19:08:57.560Z,31.37
2023-02-11T19:11:45.247Z,30.97
2023-02-11T19:14:12.508Z,29.40
2023-02-11T19:16:41.511Z,31.80
2023-02-11T19:19:08.686Z,30.20
2023-02-11T19:21:35.914Z,30.33
2023-02-11T19:24:07.690Z,31.10
2023-02-11T19:26:34.762Z,32.47
2023-02-11T19:29:01.984Z,32.57
2023-02-11T19:31:32.112Z,32.10
2023-02-11T19:33:59.734Z,33.10
2023-02-11T19:36:26.767Z,34.53
2023-02-11T19:38:53.938Z,31.50
2023-02-11T19:41:23.020Z,32.30
2023-02-11T19:43:52.871Z,35.17
2023-02-11T19:46:21.239Z,33.40
2023-02-11T19:48:49.253Z,33.83
2023-02-11T19:51:16.255Z,33.60
2023-02-11T19:53:44.581Z,35.03
2023-02-11T19:56:12.783Z,33.40
2023-02-11T19:58:40.917Z,35.27
2023-02-11T20:01:09.011Z,34.57
2023-02-11T20:03:36.139Z,36.00
2023-02-11T20:06:07.603Z,33.27
2023-02-11T20:08:34.608Z,32.40
2023-02-11T20:11:15.200Z,34.03
2023-02-11T20:13:42.533Z,35.00
2023-02-11T20:16:20.029Z,39.20
2023-02-11T20:18:49.364Z,35.60
2023-02-11T20:21:29.039Z,35.40
2023-02-11T20:23:56.185Z,34.53
2023-02-11T20:26:28.711Z,35.17
2023-02-11T20:28:56.974Z,34.57
2023-02-11T20:31:24.406Z,34.80
2023-02-11T20:33:51.738Z,36.63
2023-02-11T20:36:21.346Z,34.53
2023-02-11T20:38:49.314Z,35.67
2023-02-11T20:41:19.745Z,36.73
2023-02-11T20:43:51.984Z,34.60
2023-02-11T20:46:22.123Z,34.57
2023-02-11T20:48:49.210Z,34.97
2023-02-11T20:51:21.074Z,36.77
2023-02-11T20:53:50.361Z,36.70
2023-02-11T20:56:24.143Z,35.57
2023-02-11T20:58:51.725Z,35.33
2023-02-11T21:01:24.096Z,36.23
2023-02-11T21:03:50.866Z,35.13
2023-02-11T21:06:18.374Z,35.43
2023-02-11T21:08:45.437Z,37.83
2023-02-11T21:11:12.495Z,36.17
2023-02-11T21:13:41.235Z,35.97
2023-02-11T21:16:11.176Z,35.60
2023-02-11T21:18:38.122Z,37.97
2023-02-11T21:21:06.999Z,36.63
2023-02-11T21:23:33.846Z,36.10
2023-02-11T21:26:00.594Z,37.37
2023-02-11T21:28:27.727Z,37.20
2023-02-11T21:30:56.643Z,38.13
2023-02-11T21:33:25.510Z,35.87
2023-02-11T21:36:00.295Z,37.30
2023-02-11T21:38:27.374Z,37.10
2023-02-11T21:40:54.528Z,37.27
2023-02-11T21:43:21.713Z,39.00
2023-02-11T21:45:51.131Z,37.33
2023-02-11T21:48:18.699Z,38.03
2023-02-11T21:50:47.148Z,37.10
2023-02-11T21:53:14.395Z,38.20
2023-02-11T21:55:41.461Z,36.80
2023-02-11T21:58:08.329Z,38.50
2023-02-11T22:00:35.468Z,37.77
2023-02-11T22:03:02.504Z,38.97
2023-02-11T22:05:29.220Z,38.60
2023-02-11T22:07:56.423Z,37.63
2023-02-11T22:10:23.169Z,35.80
2023-02-11T22:12:49.901Z,38.20
2023-02-11T22:15:16.697Z,36.60
2023-02-11T22:17:43.497Z,38.80
2023-02-11T22:20:10.725Z,37.73
2023-02-11T22:22:37.443Z,38.60
2023-02-11T22:25:04.282Z,36.90
2023-02-11T22:27:31.093Z,39.73
2023-02-11T22:29:57.815Z,36.43
2023-02-11T22:32:24.563Z,36.97
2023-02-11T22:34:53.275Z,38.67
2023-02-11T22:37:20.439Z,38.67
2023-02-11T22:39:47.212Z,36.20
2023-02-11T22:42:13.996Z,36.30
2023-02-11T22:44:40.708Z,37.10
2023-02-11T22:47:07.442Z,38.50
2023-02-11T22:49:34.396Z,39.73
2023-02-11T22:52:01.276Z,37.30
2023-02-11T22:54:28.235Z,38.40
2023-02-11T22:56:55.086Z,39.70
2023-02-11T22:59:21.871Z,37.17
2023-02-11T23:01:49.026Z,40.30
2023-02-11T23:04:19.203Z,39.07
2023-02-11T23:06:47.662Z,38.97
2023-02-11T23:09:14.733Z,37.87
2023-02-11T23:11:41.653Z,36.47
2023-02-11T23:14:10.084Z,37.67
2023-02-11T23:16:36.850Z,37.77
2023-02-11T23:19:07.471Z,36.07
2023-02-11T23:21:37.426Z,38.00
2023-02-11T23:24:12.002Z,37.23
2023-02-11T23:26:43.075Z,37.13
2023-02-11T23:29:10.484Z,40.97
2023-02-11T23:31:40.300Z,41.43
2023-02-11T23:34:08.789Z,39.40
2023-02-11T23:36:36.305Z,40.17
2023-02-11T23:39:04.027Z,40.17
2023-02-11T23:41:30.807Z,40.17
2023-02-11T23:43:58.386Z,42.13
2023-02-11T23:46:28.504Z,41.23
2023-02-11T23:48:55.327Z,42.43
2023-02-11T23:51:22.455Z,42.13
2023-02-11T23:53:49.894Z,45.23
2023-02-11T23:56:22.297Z,41.90
2023-02-11T23:58:51.483Z,42.87
